RYR9009 LIME-EGPH
Flight info
| Callsign | RYR9009 |
|---|---|
| Flight time | N/A |
| Altitude | 36000 |
| Route | ARLES DCT PUNSA DCT IBODI DCT GOTED DCT TRO DCT CLM DCT KOPOR DCT VESAN DCT RATUK DCT SOVAT L613 LEHOC DCT INPIP |
| Aircraft | B738/M-SDE3FGILRWY/SB1 |
Departure
| Time | 2026-05-07 08:13 |
|---|---|
| Airport | Il Caravaggio International Airport (LIME) |
Arrival
| Time | N/A |
|---|---|
| Airport | Edinburgh Airport (EGPH) |
| Time | Latitude | Longitude | Altitude | Speed | Heading |
|---|---|---|---|---|---|
| 2026-05-07 07:08 | 45.66766 | 9.69509 | 792 ft | 0 kts | 196° |
| 2026-05-07 08:01 | 45.66769 | 9.69511 | 792 ft | 2 kts | 195° |
| 2026-05-07 08:01 | 45.66787 | 9.69517 | 792 ft | 3 kts | 188° |
| 2026-05-07 08:01 | 45.66807 | 9.69519 | 792 ft | 3 kts | 173° |
| 2026-05-07 08:02 | 45.66826 | 9.69513 | 792 ft | 3 kts | 147° |
| 2026-05-07 08:02 | 45.66837 | 9.69498 | 792 ft | 2 kts | 108° |
| 2026-05-07 08:02 | 45.66838 | 9.69494 | 792 ft | 1 kts | 106° |
| 2026-05-07 08:05 | 45.66836 | 9.69505 | 792 ft | 4 kts | 106° |
| 2026-05-07 08:05 | 45.66821 | 9.69581 | 792 ft | 12 kts | 104° |
| 2026-05-07 08:06 | 45.66796 | 9.69727 | 791 ft | 17 kts | 104° |
| 2026-05-07 08:06 | 45.66766 | 9.69883 | 790 ft | 16 kts | 106° |
| 2026-05-07 08:06 | 45.66737 | 9.70032 | 789 ft | 15 kts | 103° |
| 2026-05-07 08:06 | 45.66712 | 9.70172 | 788 ft | 13 kts | 104° |
| 2026-05-07 08:07 | 45.66697 | 9.70257 | 788 ft | 13 kts | 105° |
| 2026-05-07 08:07 | 45.66673 | 9.70380 | 787 ft | 13 kts | 106° |
| 2026-05-07 08:07 | 45.66643 | 9.70539 | 786 ft | 12 kts | 104° |
| 2026-05-07 08:07 | 45.66622 | 9.70657 | 785 ft | 12 kts | 104° |
| 2026-05-07 08:08 | 45.66600 | 9.70779 | 784 ft | 14 kts | 105° |
| 2026-05-07 08:08 | 45.66573 | 9.70923 | 783 ft | 15 kts | 104° |
| 2026-05-07 08:08 | 45.66555 | 9.71018 | 782 ft | 15 kts | 105° |
| 2026-05-07 08:08 | 45.66523 | 9.71153 | 781 ft | 14 kts | 114° |
| 2026-05-07 08:09 | 45.66491 | 9.71281 | 780 ft | 13 kts | 105° |
| 2026-05-07 08:09 | 45.66468 | 9.71407 | 779 ft | 13 kts | 104° |
| 2026-05-07 08:09 | 45.66438 | 9.71569 | 778 ft | 13 kts | 101° |
| 2026-05-07 08:09 | 45.66454 | 9.71694 | 777 ft | 13 kts | 73° |
| 2026-05-07 08:10 | 45.66476 | 9.71817 | 776 ft | 13 kts | 84° |
| 2026-05-07 08:10 | 45.66459 | 9.71938 | 775 ft | 12 kts | 104° |
| 2026-05-07 08:10 | 45.66446 | 9.72016 | 774 ft | 12 kts | 103° |
| 2026-05-07 08:10 | 45.66426 | 9.72132 | 774 ft | 12 kts | 103° |
| 2026-05-07 08:11 | 45.66406 | 9.72244 | 773 ft | 12 kts | 106° |
| 2026-05-07 08:11 | 45.66384 | 9.72353 | 772 ft | 11 kts | 104° |
| 2026-05-07 08:11 | 45.66384 | 9.72459 | 772 ft | 6 kts | 40° |
| 2026-05-07 08:11 | 45.66420 | 9.72463 | 772 ft | 5 kts | 353° |
| 2026-05-07 08:12 | 45.66456 | 9.72454 | 771 ft | 5 kts | 333° |
| 2026-05-07 08:12 | 45.66463 | 9.72430 | 772 ft | 3 kts | 285° |
| 2026-05-07 08:12 | 45.66472 | 9.72379 | 772 ft | 11 kts | 284° |
| 2026-05-07 08:12 | 45.66555 | 9.71934 | 775 ft | 83 kts | 285° |
| 2026-05-07 08:13 | 45.66762 | 9.70828 | 782 ft | 145 kts | 285° |
| 2026-05-07 08:13 | 45.67060 | 9.69230 | 1062 ft | 173 kts | 288° |
| 2026-05-07 08:13 | 45.67256 | 9.67596 | 2060 ft | 165 kts | 264° |
| 2026-05-07 08:13 | 45.66762 | 9.66122 | 2763 ft | 167 kts | 224° |
| 2026-05-07 08:14 | 45.65914 | 9.65008 | 3508 ft | 168 kts | 225° |
| 2026-05-07 08:14 | 45.65053 | 9.63788 | 3994 ft | 187 kts | 225° |
| 2026-05-07 08:14 | 45.64135 | 9.62473 | 4742 ft | 187 kts | 225° |
| 2026-05-07 08:14 | 45.63231 | 9.61167 | 5482 ft | 187 kts | 225° |
| 2026-05-07 08:15 | 45.62319 | 9.59841 | 6231 ft | 189 kts | 226° |
| 2026-05-07 08:15 | 45.61384 | 9.58491 | 6933 ft | 192 kts | 225° |
| 2026-05-07 08:15 | 45.60418 | 9.57115 | 7393 ft | 202 kts | 225° |
| 2026-05-07 08:15 | 45.59408 | 9.55684 | 7840 ft | 207 kts | 223° |
| 2026-05-07 08:16 | 45.58134 | 9.54733 | 8322 ft | 212 kts | 188° |
| 2026-05-07 08:16 | 45.56678 | 9.55004 | 8871 ft | 216 kts | 155° |
| 2026-05-07 08:16 | 45.55546 | 9.56399 | 9404 ft | 221 kts | 122° |
| 2026-05-07 08:16 | 45.55139 | 9.58505 | 9915 ft | 226 kts | 87° |
| 2026-05-07 08:17 | 45.55644 | 9.60639 | 10140 ft | 243 kts | 51° |
| 2026-05-07 08:17 | 45.56845 | 9.62407 | 10496 ft | 253 kts | 49° |
| 2026-05-07 08:17 | 45.57972 | 9.64470 | 10659 ft | 276 kts | 52° |
| 2026-05-07 08:17 | 45.59191 | 9.66723 | 10860 ft | 299 kts | 52° |
| 2026-05-07 08:18 | 45.60519 | 9.69158 | 11044 ft | 322 kts | 52° |
| 2026-05-07 08:18 | 45.61948 | 9.71772 | 11221 ft | 344 kts | 51° |
| 2026-05-07 08:18 | 45.63460 | 9.74533 | 11535 ft | 360 kts | 51° |
| 2026-05-07 08:18 | 45.65020 | 9.77381 | 12132 ft | 366 kts | 51° |
| 2026-05-07 08:19 | 45.66748 | 9.80063 | 12817 ft | 369 kts | 36° |
| 2026-05-07 08:19 | 45.69002 | 9.81667 | 13514 ft | 370 kts | 12° |
| 2026-05-07 08:19 | 45.71552 | 9.81800 | 14198 ft | 369 kts | 347° |
| 2026-05-07 08:19 | 45.73891 | 9.80395 | 14893 ft | 366 kts | 322° |
| 2026-05-07 08:20 | 45.75591 | 9.77723 | 15606 ft | 365 kts | 298° |
| 2026-05-07 08:20 | 45.76507 | 9.74353 | 16316 ft | 366 kts | 281° |
| 2026-05-07 08:20 | 45.76684 | 9.70724 | 17002 ft | 368 kts | 263° |
| 2026-05-07 08:20 | 45.76179 | 9.67121 | 17700 ft | 371 kts | 256° |
| 2026-05-07 08:21 | 45.75548 | 9.63531 | 18382 ft | 373 kts | 255° |
| 2026-05-07 08:21 | 45.74884 | 9.59917 | 18906 ft | 377 kts | 255° |
| 2026-05-07 08:21 | 45.74228 | 9.56349 | 18967 ft | 375 kts | 255° |
| 2026-05-07 08:21 | 45.73573 | 9.52729 | 18997 ft | 377 kts | 256° |
| 2026-05-07 08:22 | 45.72922 | 9.49089 | 18997 ft | 377 kts | 256° |
| 2026-05-07 08:22 | 45.72278 | 9.45452 | 18998 ft | 377 kts | 256° |
| 2026-05-07 08:22 | 45.71638 | 9.41818 | 19007 ft | 377 kts | 256° |
| 2026-05-07 08:22 | 45.70996 | 9.38172 | 19007 ft | 378 kts | 256° |
| 2026-05-07 08:23 | 45.70352 | 9.34518 | 19013 ft | 381 kts | 256° |
| 2026-05-07 08:23 | 45.69698 | 9.30810 | 19369 ft | 387 kts | 256° |
| 2026-05-07 08:23 | 45.69049 | 9.27137 | 20098 ft | 385 kts | 256° |
| 2026-05-07 08:23 | 45.68391 | 9.23426 | 20763 ft | 386 kts | 256° |
| 2026-05-07 08:24 | 45.67729 | 9.19695 | 21315 ft | 389 kts | 256° |
| 2026-05-07 08:24 | 45.67059 | 9.15927 | 21840 ft | 393 kts | 256° |
| 2026-05-07 08:24 | 45.66382 | 9.12128 | 22390 ft | 396 kts | 256° |
| 2026-05-07 08:24 | 45.65699 | 9.08305 | 22929 ft | 398 kts | 256° |
| 2026-05-07 08:25 | 45.65295 | 9.04386 | 23422 ft | 401 kts | 271° |
| 2026-05-07 08:25 | 45.65715 | 9.00446 | 23884 ft | 403 kts | 286° |
| 2026-05-07 08:25 | 45.66830 | 8.96773 | 24371 ft | 405 kts | 300° |
| 2026-05-07 08:25 | 45.68339 | 8.93355 | 24824 ft | 408 kts | 302° |
| 2026-05-07 08:26 | 45.71445 | 8.86562 | 25611 ft | 413 kts | 301° |
| 2026-05-07 08:26 | 45.73011 | 8.83095 | 26028 ft | 415 kts | 301° |
| 2026-05-07 08:26 | 45.74568 | 8.79605 | 26426 ft | 418 kts | 301° |
| 2026-05-07 08:27 | 45.76127 | 8.76081 | 26818 ft | 420 kts | 301° |
| 2026-05-07 08:27 | 45.77686 | 8.72537 | 27193 ft | 422 kts | 300° |
| 2026-05-07 08:27 | 45.79252 | 8.68967 | 27564 ft | 424 kts | 300° |
| 2026-05-07 08:27 | 45.80827 | 8.65375 | 27912 ft | 427 kts | 301° |
| 2026-05-07 08:28 | 45.82413 | 8.61757 | 28212 ft | 430 kts | 301° |
| 2026-05-07 08:28 | 45.83988 | 8.58159 | 28554 ft | 433 kts | 301° |
| 2026-05-07 08:28 | 45.85583 | 8.54495 | 28868 ft | 435 kts | 301° |
| 2026-05-07 08:28 | 45.87195 | 8.50783 | 29021 ft | 441 kts | 301° |
| 2026-05-07 08:29 | 45.88821 | 8.47031 | 29318 ft | 443 kts | 301° |
| 2026-05-07 08:29 | 45.90449 | 8.43273 | 29679 ft | 444 kts | 301° |
| 2026-05-07 08:29 | 45.92079 | 8.39507 | 30102 ft | 443 kts | 301° |
| 2026-05-07 08:29 | 45.93702 | 8.35750 | 30472 ft | 442 kts | 301° |
| 2026-05-07 08:30 | 45.95313 | 8.32001 | 30853 ft | 440 kts | 300° |
| 2026-05-07 08:30 | 45.96918 | 8.28254 | 31226 ft | 439 kts | 300° |
| 2026-05-07 08:30 | 45.98496 | 8.24566 | 31611 ft | 439 kts | 300° |
| 2026-05-07 08:30 | 46.00094 | 8.20827 | 31966 ft | 438 kts | 300° |
| 2026-05-07 08:31 | 46.01685 | 8.17100 | 32380 ft | 437 kts | 300° |
| 2026-05-07 08:31 | 46.03272 | 8.13376 | 32764 ft | 435 kts | 300° |
| 2026-05-07 08:31 | 46.04854 | 8.09663 | 33129 ft | 435 kts | 299° |
| 2026-05-07 08:31 | 46.06430 | 8.05957 | 33506 ft | 433 kts | 299° |
| 2026-05-07 08:32 | 46.07998 | 8.02267 | 33884 ft | 432 kts | 299° |
| 2026-05-07 08:32 | 46.09568 | 7.98579 | 34143 ft | 432 kts | 299° |
| 2026-05-07 08:32 | 46.11122 | 7.94936 | 34345 ft | 434 kts | 299° |
| 2026-05-07 08:32 | 46.12703 | 7.91231 | 34572 ft | 434 kts | 299° |
| 2026-05-07 08:33 | 46.14280 | 7.87531 | 34838 ft | 433 kts | 299° |
| 2026-05-07 08:33 | 46.15857 | 7.83827 | 35076 ft | 433 kts | 299° |
| 2026-05-07 08:33 | 46.17433 | 7.80116 | 35275 ft | 434 kts | 299° |
| 2026-05-07 08:33 | 46.19008 | 7.76402 | 35499 ft | 435 kts | 299° |
| 2026-05-07 08:34 | 46.20585 | 7.72677 | 35722 ft | 434 kts | 299° |
| 2026-05-07 08:34 | 46.22160 | 7.68952 | 35954 ft | 435 kts | 299° |
| 2026-05-07 08:34 | 46.23735 | 7.65222 | 36138 ft | 435 kts | 299° |
| 2026-05-07 08:34 | 46.25289 | 7.61536 | 36361 ft | 435 kts | 298° |
| 2026-05-07 08:35 | 46.26860 | 7.57806 | 36600 ft | 435 kts | 298° |
| 2026-05-07 08:35 | 46.28434 | 7.54061 | 36806 ft | 436 kts | 298° |
| 2026-05-07 08:35 | 46.30010 | 7.50309 | 36994 ft | 436 kts | 298° |
| 2026-05-07 08:35 | 46.31583 | 7.46558 | 37193 ft | 437 kts | 298° |
| 2026-05-07 08:36 | 46.33156 | 7.42801 | 37437 ft | 436 kts | 298° |
| 2026-05-07 08:36 | 46.34730 | 7.39038 | 37527 ft | 439 kts | 298° |
| 2026-05-07 08:36 | 46.36312 | 7.35249 | 37659 ft | 440 kts | 298° |
| 2026-05-07 08:36 | 46.37894 | 7.31455 | 37872 ft | 439 kts | 298° |
| 2026-05-07 08:37 | 46.39473 | 7.27667 | 38055 ft | 440 kts | 298° |
| 2026-05-07 08:37 | 46.41035 | 7.23910 | 38000 ft | 442 kts | 298° |
| 2026-05-07 08:37 | 46.44195 | 7.16299 | 38016 ft | 439 kts | 298° |
| 2026-05-07 08:38 | 46.47326 | 7.08737 | 38006 ft | 436 kts | 298° |
| 2026-05-07 08:38 | 46.50434 | 7.01211 | 37996 ft | 434 kts | 298° |
| 2026-05-07 08:39 | 46.53501 | 6.93761 | 38022 ft | 432 kts | 298° |
| 2026-05-07 08:39 | 46.56580 | 6.86259 | 38021 ft | 432 kts | 298° |
| 2026-05-07 08:40 | 46.59659 | 6.78739 | 38031 ft | 433 kts | 298° |
| 2026-05-07 08:40 | 46.62741 | 6.71190 | 38033 ft | 435 kts | 298° |
| 2026-05-07 08:41 | 46.65829 | 6.63607 | 38037 ft | 436 kts | 298° |
| 2026-05-07 08:41 | 46.68902 | 6.56041 | 38021 ft | 438 kts | 298° |
| 2026-05-07 08:42 | 46.72004 | 6.48379 | 38023 ft | 439 kts | 298° |
| 2026-05-07 08:42 | 46.75108 | 6.40695 | 38024 ft | 440 kts | 298° |
| 2026-05-07 08:43 | 46.78214 | 6.32982 | 38024 ft | 441 kts | 298° |
| 2026-05-07 08:43 | 46.81297 | 6.25304 | 38032 ft | 442 kts | 298° |
| 2026-05-07 08:44 | 46.84402 | 6.17550 | 38032 ft | 442 kts | 298° |
| 2026-05-07 08:44 | 46.87500 | 6.09790 | 38038 ft | 442 kts | 298° |
| 2026-05-07 08:45 | 46.90592 | 6.02026 | 38039 ft | 441 kts | 298° |
| 2026-05-07 08:45 | 46.93713 | 5.94373 | 38029 ft | 442 kts | 304° |
| 2026-05-07 08:46 | 46.98078 | 5.88024 | 38038 ft | 446 kts | 322° |
| 2026-05-07 08:46 | 47.03497 | 5.83536 | 38045 ft | 449 kts | 330° |
| 2026-05-07 08:47 | 47.09063 | 5.79388 | 38040 ft | 448 kts | 330° |
| 2026-05-07 08:47 | 47.14563 | 5.75222 | 38051 ft | 447 kts | 330° |
| 2026-05-07 08:48 | 47.20075 | 5.70975 | 38042 ft | 447 kts | 329° |
| 2026-05-07 08:48 | 47.25574 | 5.66710 | 38052 ft | 447 kts | 329° |
| 2026-05-07 08:49 | 47.31069 | 5.62439 | 38042 ft | 447 kts | 329° |
| 2026-05-07 08:49 | 47.36524 | 5.58192 | 38043 ft | 446 kts | 329° |
| 2026-05-07 08:50 | 47.42016 | 5.53906 | 38043 ft | 446 kts | 329° |
| 2026-05-07 08:50 | 47.47505 | 5.49614 | 38053 ft | 447 kts | 329° |
| 2026-05-07 08:51 | 47.52664 | 5.44601 | 38048 ft | 442 kts | 315° |
| 2026-05-07 08:51 | 47.56599 | 5.37760 | 38057 ft | 439 kts | 304° |
| 2026-05-07 08:52 | 47.60178 | 5.30415 | 38039 ft | 440 kts | 304° |
| 2026-05-07 08:52 | 47.63775 | 5.23065 | 38039 ft | 441 kts | 304° |
| 2026-05-07 08:53 | 47.67401 | 5.15702 | 38049 ft | 442 kts | 304° |
| 2026-05-07 08:53 | 47.71038 | 5.08329 | 38047 ft | 443 kts | 304° |
| 2026-05-07 08:54 | 47.74653 | 5.00986 | 38047 ft | 444 kts | 304° |
| 2026-05-07 08:54 | 47.78293 | 4.93572 | 38046 ft | 444 kts | 304° |
| 2026-05-07 08:55 | 47.81930 | 4.86142 | 38046 ft | 444 kts | 304° |
| 2026-05-07 08:55 | 47.85561 | 4.78704 | 38043 ft | 444 kts | 304° |
| 2026-05-07 08:56 | 47.89161 | 4.71310 | 38043 ft | 443 kts | 304° |
| 2026-05-07 08:56 | 47.92773 | 4.63871 | 38052 ft | 443 kts | 304° |
| 2026-05-07 08:57 | 47.96379 | 4.56424 | 38037 ft | 442 kts | 304° |
| 2026-05-07 08:57 | 47.99972 | 4.48983 | 38044 ft | 442 kts | 304° |
| 2026-05-07 08:58 | 48.03560 | 4.41530 | 38038 ft | 442 kts | 304° |
| 2026-05-07 08:58 | 48.07117 | 4.34125 | 38038 ft | 441 kts | 304° |
| 2026-05-07 08:59 | 48.10689 | 4.26666 | 38043 ft | 441 kts | 304° |
| 2026-05-07 08:59 | 48.14251 | 4.19207 | 38045 ft | 440 kts | 304° |
| 2026-05-07 09:00 | 48.17813 | 4.11728 | 38050 ft | 441 kts | 304° |
| 2026-05-07 09:00 | 48.21345 | 4.04292 | 38051 ft | 441 kts | 304° |
| 2026-05-07 09:01 | 48.24903 | 3.96804 | 38048 ft | 441 kts | 306° |
| 2026-05-07 09:01 | 48.28992 | 3.89926 | 38047 ft | 442 kts | 313° |
| 2026-05-07 09:02 | 48.33291 | 3.83317 | 38054 ft | 442 kts | 313° |
| 2026-05-07 09:02 | 48.37541 | 3.76716 | 38052 ft | 443 kts | 312° |
| 2026-05-07 09:03 | 48.41790 | 3.70012 | 38043 ft | 443 kts | 312° |
| 2026-05-07 09:03 | 48.46028 | 3.63277 | 38051 ft | 443 kts | 312° |
| 2026-05-07 09:04 | 48.50258 | 3.56536 | 38048 ft | 443 kts | 312° |
| 2026-05-07 09:04 | 48.54484 | 3.49786 | 38048 ft | 443 kts | 312° |
| 2026-05-07 09:05 | 48.58679 | 3.43067 | 38053 ft | 443 kts | 312° |
| 2026-05-07 09:05 | 48.62903 | 3.36285 | 38056 ft | 443 kts | 312° |
| 2026-05-07 09:06 | 48.67129 | 3.29482 | 38047 ft | 444 kts | 312° |
| 2026-05-07 09:06 | 48.71354 | 3.22663 | 38049 ft | 444 kts | 311° |
| 2026-05-07 09:07 | 48.75544 | 3.15884 | 38049 ft | 444 kts | 311° |
| 2026-05-07 09:07 | 48.79761 | 3.09042 | 38052 ft | 444 kts | 311° |
| 2026-05-07 09:08 | 48.84034 | 3.02282 | 38047 ft | 445 kts | 317° |
| 2026-05-07 09:08 | 48.89183 | 2.97049 | 38061 ft | 447 kts | 329° |
| 2026-05-07 09:09 | 48.94577 | 2.92451 | 38052 ft | 447 kts | 329° |
| 2026-05-07 09:09 | 48.99996 | 2.87792 | 38051 ft | 448 kts | 328° |
| 2026-05-07 09:10 | 49.05398 | 2.83071 | 38064 ft | 448 kts | 328° |
| 2026-05-07 09:10 | 49.10793 | 2.78318 | 38066 ft | 448 kts | 328° |
| 2026-05-07 09:11 | 49.16190 | 2.73550 | 38070 ft | 448 kts | 328° |
| 2026-05-07 09:11 | 49.21546 | 2.68808 | 38066 ft | 448 kts | 328° |
| 2026-05-07 09:12 | 49.26939 | 2.64022 | 38061 ft | 448 kts | 328° |
| 2026-05-07 09:12 | 49.32330 | 2.59226 | 38046 ft | 448 kts | 328° |
| 2026-05-07 09:13 | 49.37714 | 2.54423 | 38069 ft | 448 kts | 328° |
| 2026-05-07 09:13 | 49.43061 | 2.49640 | 38061 ft | 448 kts | 328° |
| 2026-05-07 09:14 | 49.48440 | 2.44819 | 38072 ft | 448 kts | 328° |
| 2026-05-07 09:14 | 49.54076 | 2.40734 | 38063 ft | 451 kts | 341° |
| 2026-05-07 09:15 | 49.60105 | 2.38052 | 38054 ft | 451 kts | 342° |
| 2026-05-07 09:15 | 49.66148 | 2.35420 | 38079 ft | 451 kts | 342° |
| 2026-05-07 09:16 | 49.72141 | 2.32735 | 38048 ft | 451 kts | 342° |
| 2026-05-07 09:16 | 49.78160 | 2.29991 | 38055 ft | 451 kts | 342° |
| 2026-05-07 09:17 | 49.84173 | 2.27234 | 38066 ft | 451 kts | 342° |
| 2026-05-07 09:17 | 49.90184 | 2.24473 | 38059 ft | 451 kts | 342° |
| 2026-05-07 09:18 | 49.96160 | 2.21722 | 38074 ft | 451 kts | 342° |
| 2026-05-07 09:18 | 50.02179 | 2.18944 | 38063 ft | 451 kts | 342° |
| 2026-05-07 09:19 | 50.08192 | 2.16163 | 38066 ft | 451 kts | 342° |
| 2026-05-07 09:19 | 50.14211 | 2.13370 | 38059 ft | 451 kts | 342° |
| 2026-05-07 09:20 | 50.20185 | 2.10591 | 38060 ft | 451 kts | 342° |
| 2026-05-07 09:20 | 50.26207 | 2.07783 | 38059 ft | 451 kts | 342° |
| 2026-05-07 09:21 | 50.32223 | 2.04971 | 38058 ft | 451 kts | 342° |
| 2026-05-07 09:21 | 50.37990 | 2.01231 | 38062 ft | 448 kts | 327° |
| 2026-05-07 09:22 | 50.42819 | 1.95235 | 38074 ft | 446 kts | 317° |
| 2026-05-07 09:22 | 50.47456 | 1.88746 | 38064 ft | 447 kts | 317° |
| 2026-05-07 09:23 | 50.52119 | 1.82294 | 38074 ft | 447 kts | 317° |
| 2026-05-07 09:23 | 50.56812 | 1.75856 | 38077 ft | 448 kts | 317° |
| 2026-05-07 09:24 | 50.61483 | 1.69443 | 38070 ft | 449 kts | 317° |
| 2026-05-07 09:24 | 50.66184 | 1.62966 | 38074 ft | 449 kts | 317° |
| 2026-05-07 09:25 | 50.70879 | 1.56468 | 38066 ft | 449 kts | 317° |
| 2026-05-07 09:25 | 50.75572 | 1.49957 | 38069 ft | 449 kts | 317° |
| 2026-05-07 09:26 | 50.80230 | 1.43479 | 38074 ft | 449 kts | 317° |
| 2026-05-07 09:26 | 50.84919 | 1.36946 | 38079 ft | 449 kts | 317° |
| 2026-05-07 09:27 | 50.89601 | 1.30403 | 38092 ft | 449 kts | 317° |
| 2026-05-07 09:28 | 50.96622 | 1.20556 | 38101 ft | 449 kts | 317° |
| 2026-05-07 09:28 | 51.01266 | 1.14020 | 38098 ft | 449 kts | 317° |
| 2026-05-07 09:29 | 51.05941 | 1.07427 | 38098 ft | 449 kts | 318° |
| 2026-05-07 09:29 | 51.10944 | 1.01450 | 38104 ft | 450 kts | 324° |
| 2026-05-07 09:30 | 51.16132 | 0.95860 | 38095 ft | 450 kts | 325° |
| 2026-05-07 09:30 | 51.21278 | 0.90273 | 38041 ft | 451 kts | 324° |
| 2026-05-07 09:31 | 51.26433 | 0.84576 | 38025 ft | 451 kts | 324° |
| 2026-05-07 09:31 | 51.31575 | 0.78839 | 38014 ft | 451 kts | 324° |
| 2026-05-07 09:32 | 51.36714 | 0.73084 | 38076 ft | 451 kts | 324° |
| 2026-05-07 09:32 | 51.41854 | 0.67314 | 38077 ft | 451 kts | 324° |
| 2026-05-07 09:33 | 51.46992 | 0.61532 | 38076 ft | 451 kts | 324° |
| 2026-05-07 09:33 | 51.52090 | 0.55780 | 38076 ft | 451 kts | 324° |
| 2026-05-07 09:34 | 51.57225 | 0.49969 | 38077 ft | 451 kts | 324° |
| 2026-05-07 09:34 | 51.62353 | 0.44149 | 38078 ft | 451 kts | 324° |
| 2026-05-07 09:35 | 51.67484 | 0.38311 | 38079 ft | 451 kts | 323° |
| 2026-05-07 09:35 | 51.72575 | 0.32500 | 38098 ft | 451 kts | 324° |
| 2026-05-07 09:36 | 51.77700 | 0.26634 | 38101 ft | 452 kts | 323° |
| 2026-05-07 09:36 | 51.82822 | 0.20756 | 38110 ft | 452 kts | 324° |
| 2026-05-07 09:37 | 51.87941 | 0.14864 | 38103 ft | 452 kts | 323° |
| 2026-05-07 09:37 | 51.93026 | 0.08993 | 38103 ft | 452 kts | 323° |
| 2026-05-07 09:38 | 51.98142 | 0.03072 | 38097 ft | 452 kts | 323° |
| 2026-05-07 09:38 | 52.03279 | -0.02805 | 38077 ft | 452 kts | 327° |
| 2026-05-07 09:39 | 52.08790 | -0.07741 | 38075 ft | 453 kts | 332° |
| 2026-05-07 09:39 | 52.14387 | -0.12464 | 38081 ft | 453 kts | 332° |
| 2026-05-07 09:40 | 52.19917 | -0.17262 | 38081 ft | 453 kts | 331° |
| 2026-05-07 09:40 | 52.25470 | -0.22161 | 38081 ft | 454 kts | 331° |
| 2026-05-07 09:41 | 52.31024 | -0.27073 | 38084 ft | 454 kts | 331° |
| 2026-05-07 09:41 | 52.36580 | -0.31996 | 38079 ft | 454 kts | 331° |
| 2026-05-07 09:42 | 52.42100 | -0.36902 | 38075 ft | 454 kts | 331° |
| 2026-05-07 09:42 | 52.47656 | -0.41855 | 38071 ft | 454 kts | 331° |
| 2026-05-07 09:43 | 52.53208 | -0.46819 | 38081 ft | 454 kts | 331° |
| 2026-05-07 09:43 | 52.58756 | -0.51793 | 38073 ft | 454 kts | 330° |
| 2026-05-07 09:44 | 52.64265 | -0.56747 | 38077 ft | 454 kts | 330° |
| 2026-05-07 09:44 | 52.69803 | -0.61742 | 38077 ft | 454 kts | 330° |
| 2026-05-07 09:45 | 52.75337 | -0.66747 | 38071 ft | 453 kts | 330° |
| 2026-05-07 09:45 | 52.80865 | -0.71762 | 38081 ft | 453 kts | 330° |
| 2026-05-07 09:46 | 52.86389 | -0.76788 | 38069 ft | 453 kts | 330° |
| 2026-05-07 09:46 | 52.91877 | -0.81796 | 38076 ft | 453 kts | 330° |
| 2026-05-07 09:47 | 52.97395 | -0.86845 | 38073 ft | 453 kts | 330° |
| 2026-05-07 09:47 | 53.02914 | -0.91909 | 38077 ft | 453 kts | 330° |
| 2026-05-07 09:48 | 53.08393 | -0.96949 | 38068 ft | 453 kts | 330° |
| 2026-05-07 09:48 | 53.13912 | -1.02039 | 38075 ft | 454 kts | 330° |
| 2026-05-07 09:49 | 53.19429 | -1.07144 | 38073 ft | 454 kts | 330° |
| 2026-05-07 09:49 | 53.24954 | -1.12270 | 38078 ft | 455 kts | 330° |
| 2026-05-07 09:50 | 53.30478 | -1.17413 | 38076 ft | 455 kts | 330° |
| 2026-05-07 09:50 | 53.35973 | -1.22543 | 38071 ft | 455 kts | 330° |
| 2026-05-07 09:51 | 53.41502 | -1.27719 | 38087 ft | 455 kts | 329° |
| 2026-05-07 09:51 | 53.47032 | -1.32919 | 38085 ft | 456 kts | 329° |
| 2026-05-07 09:52 | 53.52560 | -1.38138 | 38081 ft | 456 kts | 329° |
| 2026-05-07 09:52 | 53.58047 | -1.43334 | 38079 ft | 455 kts | 330° |
| 2026-05-07 09:53 | 53.63569 | -1.48577 | 38075 ft | 455 kts | 329° |
| 2026-05-07 09:53 | 53.69081 | -1.53827 | 38077 ft | 455 kts | 329° |
| 2026-05-07 09:54 | 53.74480 | -1.59375 | 38068 ft | 453 kts | 319° |
| 2026-05-07 09:54 | 53.79159 | -1.66489 | 38068 ft | 452 kts | 315° |
| 2026-05-07 09:55 | 53.83725 | -1.73687 | 38079 ft | 452 kts | 316° |
| 2026-05-07 09:55 | 53.88352 | -1.80882 | 38077 ft | 452 kts | 316° |
| 2026-05-07 09:56 | 53.92996 | -1.88066 | 38069 ft | 452 kts | 316° |
| 2026-05-07 09:56 | 53.97639 | -1.95265 | 38066 ft | 452 kts | 316° |
| 2026-05-07 09:57 | 54.02302 | -2.02307 | 38056 ft | 453 kts | 322° |